Time;durP1;ratioP1;P1;durP2;ratioP2;P2;SDS_P1;SDS_P2;PMS_P1;PMS_P2;Temp;Humidity;BMP_temperature;BMP_pressure;BME280_temperature;BME280_humidity;BME280_pressure;Samples;Min_cycle;Max_cycle;Signal;HPM_P1;HPM_P2
2022/05/24 00:03:38;;;;;;;4.50;2.65;;;13.00;91.20;;;;;;10478532;28;20032;-86
2022/05/24 00:08:39;;;;;;;3.72;2.80;;;13.00;90.80;;;;;;10474675;28;20032;-86
2022/05/24 00:13:39;;;;;;;5.40;3.05;;;13.10;90.90;;;;;;10478214;28;20044;-85
2022/05/24 00:18:40;;;;;;;3.95;2.67;;;13.00;91.40;;;;;;10489378;28;20438;-85
2022/05/24 00:23:41;;;;;;;6.38;3.58;;;13.10;91.30;;;;;;10514059;28;20028;-85
2022/05/24 00:28:41;;;;;;;4.28;2.58;;;13.00;91.10;;;;;;10517394;28;20477;-86
2022/05/24 00:33:42;;;;;;;5.35;2.85;;;13.00;91.60;;;;;;10472103;28;20052;-86
2022/05/24 00:38:43;;;;;;;5.35;2.50;;;13.00;92.00;;;;;;10472324;28;20037;-85
2022/05/24 00:43:52;;;;;;;3.78;3.05;;;13.00;92.30;;;;;;10470447;28;20412;-86
2022/05/24 00:48:58;;;;;;;6.22;3.20;;;12.90;92.50;;;;;;10471484;28;20090;-85
2022/05/24 00:53:59;;;;;;;3.33;2.50;;;12.90;92.80;;;;;;10506536;28;20483;-85
2022/05/24 00:59:06;;;;;;;3.35;2.60;;;12.90;92.90;;;;;;10514995;28;20023;-85
2022/05/24 01:04:10;;;;;;;4.40;2.45;;;12.90;92.90;;;;;;10470635;28;20904;-86
2022/05/24 01:09:34;;;;;;;5.60;2.90;;;12.80;93.40;;;;;;10493555;28;20111;-85
2022/05/24 01:14:36;;;;;;;3.60;2.72;;;12.70;94.30;;;;;;10470165;28;20052;-85
2022/05/24 01:19:41;;;;;;;5.18;3.47;;;12.60;93.90;;;;;;10470150;28;20036;-85
2022/05/24 01:25:11;;;;;;;5.60;2.85;;;12.70;94.40;;;;;;10488123;28;20569;-85
2022/05/24 01:30:12;;;;;;;5.30;3.22;;;12.70;94.00;;;;;;10461823;28;20486;-85
2022/05/24 01:40:34;;;;;;;3.80;2.92;;;12.70;94.00;;;;;;10488377;28;20060;-86
2022/05/24 01:45:40;;;;;;;4.47;3.03;;;12.80;93.80;;;;;;10468984;28;20021;-86
2022/05/24 01:50:44;;;;;;;6.70;3.50;;;12.80;94.00;;;;;;10488145;28;20780;-85
2022/05/24 01:55:52;;;;;;;5.53;3.10;;;12.80;94.30;;;;;;10474705;28;20043;-85
2022/05/24 02:01:01;;;;;;;7.55;3.20;;;12.80;94.10;;;;;;10486596;28;20029;-86
2022/05/24 02:06:21;;;;;;;8.40;4.03;;;12.80;93.90;;;;;;10447900;28;20032;-85
2022/05/24 02:11:26;;;;;;;7.20;4.18;;;12.80;94.20;;;;;;10480160;28;20115;-85
2022/05/24 02:16:31;;;;;;;7.75;4.20;;;12.80;94.00;;;;;;10468814;28;20041;-85
2022/05/24 02:21:32;;;;;;;13.25;5.10;;;12.80;94.90;;;;;;10473099;28;20035;-87
2022/05/24 02:26:33;;;;;;;11.88;5.63;;;12.70;95.70;;;;;;10495348;28;20572;-85
2022/05/24 02:31:33;;;;;;;20.20;7.85;;;12.70;95.30;;;;;;10486502;28;20494;-85
2022/05/24 02:36:34;;;;;;;15.30;7.53;;;12.60;95.70;;;;;;10486735;28;20114;-85
2022/05/24 02:41:36;;;;;;;13.85;7.22;;;12.60;96.90;;;;;;10481079;28;20048;-85
2022/05/24 02:46:41;;;;;;;15.40;6.93;;;12.50;98.60;;;;;;10478700;28;20040;-86
2022/05/24 02:51:44;;;;;;;18.45;7.43;;;12.40;99.90;;;;;;10484700;28;20047;-85
2022/05/24 02:56:44;;;;;;;13.57;6.05;;;12.30;99.90;;;;;;10484792;28;20043;-85
2022/05/24 03:01:45;;;;;;;11.98;6.18;;;12.30;99.90;;;;;;10465915;28;20039;-85
2022/05/24 03:17:27;;;;;;;9.65;5.05;;;12.60;99.90;;;;;;10490363;28;20053;-85
2022/05/24 03:22:28;;;;;;;9.32;4.88;;;12.60;99.90;;;;;;10522373;28;20024;-85
2022/05/24 03:27:28;;;;;;;6.95;4.03;;;12.70;99.90;;;;;;10492390;28;20708;-84
2022/05/24 03:32:29;;;;;;;7.30;4.50;;;12.80;99.90;;;;;;10474746;28;20041;-84
2022/05/24 03:37:30;;;;;;;5.10;3.70;;;12.90;99.90;;;;;;10477368;28;20021;-84
2022/05/24 03:42:30;;;;;;;7.22;4.00;;;13.00;99.90;;;;;;10499625;28;20428;-84
2022/05/24 03:47:31;;;;;;;6.35;3.65;;;13.10;99.90;;;;;;10498978;28;20042;-83
2022/05/24 03:52:32;;;;;;;4.90;4.00;;;13.20;99.90;;;;;;10491940;28;20037;-85
2022/05/24 04:02:52;;;;;;;5.45;3.40;;;13.40;98.30;;;;;;10492157;28;20041;-85
2022/05/24 04:07:53;;;;;;;5.63;3.40;;;13.30;97.30;;;;;;10482139;28;20036;-86
2022/05/24 04:12:53;;;;;;;3.65;3.10;;;13.40;97.20;;;;;;10484471;28;20068;-84
2022/05/24 04:17:55;;;;;;;4.78;3.33;;;13.40;97.00;;;;;;10475784;28;20127;-85
2022/05/24 04:22:57;;;;;;;5.10;3.60;;;13.40;97.70;;;;;;10481545;28;20051;-85
2022/05/24 04:27:58;;;;;;;5.25;3.53;;;13.40;99.00;;;;;;10485326;28;20040;-84
2022/05/24 04:32:58;;;;;;;4.30;3.50;;;13.40;98.20;;;;;;10497887;28;20820;-82
2022/05/24 04:38:00;;;;;;;5.57;3.70;;;13.50;99.90;;;;;;10470613;28;20051;-84
2022/05/24 04:43:01;;;;;;;5.07;3.83;;;13.50;99.90;;;;;;10486237;28;20049;-83
2022/05/24 04:48:02;;;;;;;4.30;3.47;;;13.60;99.90;;;;;;10482624;28;20277;-84
2022/05/24 04:53:03;;;;;;;6.57;4.30;;;13.70;99.90;;;;;;10472334;28;20024;-83
2022/05/24 04:58:03;;;;;;;7.22;3.90;;;13.80;99.90;;;;;;10489307;28;20036;-83
2022/05/24 05:03:08;;;;;;;6.47;3.88;;;13.90;99.90;;;;;;10467002;28;20054;-83
2022/05/24 05:08:09;;;;;;;6.63;3.88;;;14.00;99.90;;;;;;10490270;28;20024;-83
2022/05/24 05:13:10;;;;;;;7.25;4.55;;;14.00;99.40;;;;;;10503287;28;20024;-83
2022/05/24 05:18:14;;;;;;;4.60;3.50;;;14.10;99.60;;;;;;10512051;28;20387;-83
2022/05/24 05:23:16;;;;;;;10.98;4.57;;;14.10;99.30;;;;;;10530888;28;20038;-83
2022/05/24 05:28:18;;;;;;;10.35;5.65;;;14.10;99.90;;;;;;10530683;28;20042;-83
2022/05/24 05:33:19;;;;;;;9.77;5.60;;;14.00;99.90;;;;;;10530525;28;20081;-83
2022/05/24 05:38:20;;;;;;;8.75;6.10;;;13.80;99.90;;;;;;10528488;28;20562;-83
2022/05/24 05:43:21;;;;;;;10.75;6.63;;;13.50;99.90;;;;;;10529537;28;20121;-82
2022/05/24 05:48:22;;;;;;;10.10;6.20;;;13.40;99.90;;;;;;10529652;28;20016;-82
2022/05/24 05:53:23;;;;;;;7.60;5.68;;;13.50;99.90;;;;;;10529385;28;20032;-83
2022/05/24 05:58:24;;;;;;;8.48;5.53;;;13.60;99.90;;;;;;10511086;28;20016;-82
2022/05/24 06:03:25;;;;;;;9.93;6.15;;;13.70;99.90;;;;;;10512876;28;20057;-83
2022/05/24 06:08:27;;;;;;;12.88;6.95;;;13.70;99.90;;;;;;10529071;28;20023;-82
2022/05/24 06:13:27;;;;;;;8.38;6.13;;;13.80;99.90;;;;;;10528586;28;20472;-82
2022/05/24 06:18:28;;;;;;;7.68;6.03;;;13.80;99.90;;;;;;10511217;28;20028;-83
2022/05/24 06:23:28;;;;;;;9.98;5.88;;;13.80;99.90;;;;;;10528857;28;20099;-82
2022/05/24 06:28:29;;;;;;;9.05;5.85;;;13.80;99.90;;;;;;10526876;28;20061;-82
2022/05/24 06:33:30;;;;;;;10.63;6.78;;;13.80;99.90;;;;;;10511630;28;20534;-81
2022/05/24 06:38:32;;;;;;;11.05;6.35;;;13.90;99.90;;;;;;10506259;28;20459;-82
2022/05/24 06:43:36;;;;;;;9.48;6.13;;;14.10;99.90;;;;;;10528231;28;20396;-82
2022/05/24 06:48:40;;;;;;;8.35;5.82;;;14.20;99.90;;;;;;10528275;28;20114;-83
2022/05/24 06:53:43;;;;;;;9.48;5.50;;;14.50;99.90;;;;;;10518364;28;20040;-82
2022/05/24 06:58:44;;;;;;;9.02;5.90;;;14.70;99.90;;;;;;10535850;28;20101;-82
2022/05/24 07:03:45;;;;;;;11.57;5.50;;;14.90;99.90;;;;;;10536303;28;20061;-83
2022/05/24 07:08:47;;;;;;;10.02;5.00;;;15.00;99.90;;;;;;10535764;28;20503;-82
2022/05/24 07:13:49;;;;;;;12.55;5.35;;;15.10;99.90;;;;;;10535653;28;20047;-82
2022/05/24 07:18:49;;;;;;;10.35;6.07;;;15.40;99.90;;;;;;10535819;28;20086;-83
2022/05/24 07:23:51;;;;;;;14.90;5.95;;;15.60;99.90;;;;;;10535018;28;20479;-83
2022/05/24 07:28:51;;;;;;;9.35;5.85;;;15.90;99.90;;;;;;10536181;28;20377;-83
2022/05/24 07:33:52;;;;;;;9.50;6.20;;;16.10;99.90;;;;;;10534490;28;20036;-83
2022/05/24 07:38:52;;;;;;;16.73;6.47;;;16.10;99.90;;;;;;10535292;28;20031;-83
2022/05/24 07:49:14;;;;;;;12.07;6.18;;;16.10;99.90;;;;;;10481741;28;20067;-84
2022/05/24 07:54:14;;;;;;;10.50;5.68;;;16.10;99.90;;;;;;10534157;28;20048;-83
2022/05/24 07:59:15;;;;;;;11.93;5.95;;;16.00;99.90;;;;;;10533961;28;20024;-83
2022/05/24 08:04:16;;;;;;;8.27;5.53;;;16.00;99.90;;;;;;10533150;28;20027;-83
2022/05/24 08:09:17;;;;;;;9.40;5.70;;;16.20;99.90;;;;;;10533269;28;20518;-83
2022/05/24 08:14:17;;;;;;;10.25;5.80;;;16.40;99.90;;;;;;10532927;28;20039;-82
2022/05/24 08:19:18;;;;;;;12.18;5.72;;;16.80;99.90;;;;;;10533205;28;20026;-83
2022/05/24 08:24:19;;;;;;;7.55;5.07;;;17.10;99.90;;;;;;10513840;28;20085;-82
2022/05/24 08:29:19;;;;;;;12.95;5.55;;;17.40;99.90;;;;;;10526974;28;20088;-82
2022/05/24 08:34:20;;;;;;;7.80;5.28;;;17.40;99.90;;;;;;10532125;28;20032;-82
2022/05/24 08:39:20;;;;;;;8.70;5.05;;;17.40;99.90;;;;;;10526285;28;20040;-83
2022/05/24 08:49:49;;;;;;;10.98;5.35;;;17.10;99.90;;;;;;10490789;28;20649;-83
2022/05/24 08:54:50;;;;;;;12.23;5.75;;;17.00;99.90;;;;;;10489800;28;20086;-82
2022/05/24 09:00:00;;;;;;;10.27;5.78;;;16.80;99.90;;;;;;10517397;28;20471;-81
2022/05/24 09:05:01;;;;;;;12.20;6.95;;;16.60;99.90;;;;;;10531419;28;20032;-81
2022/05/24 09:10:09;;;;;;;10.13;6.45;;;16.70;99.90;;;;;;10531650;28;20107;-81
2022/05/24 09:15:47;;;;;;;14.07;8.30;;;16.80;99.90;;;;;;10529887;28;20039;-82
2022/05/24 09:20:48;;;;;;;14.85;8.40;;;16.90;99.90;;;;;;10530793;28;20101;-82
2022/05/24 09:25:58;;;;;;;14.35;9.38;;;17.10;99.90;;;;;;10529994;28;20028;-83
2022/05/24 09:30:59;;;;;;;11.90;8.35;;;17.40;99.90;;;;;;10505389;28;20392;-83
2022/05/24 09:36:00;;;;;;;14.50;7.82;;;17.50;99.90;;;;;;10488930;28;20032;-83
2022/05/24 09:41:10;;;;;;;13.68;8.32;;;17.50;99.90;;;;;;10488626;28;20052;-83
2022/05/24 09:46:22;;;;;;;10.32;7.60;;;17.50;99.90;;;;;;10490268;28;20103;-82
2022/05/24 09:51:31;;;;;;;15.68;7.93;;;17.40;99.90;;;;;;10492893;28;20480;-82
2022/05/24 09:56:35;;;;;;;36.28;21.10;;;17.30;99.90;;;;;;10490521;28;20036;-82
2022/05/24 10:01:49;;;;;;;22.75;11.88;;;17.20;99.90;;;;;;10488180;28;20059;-82
2022/05/24 10:06:59;;;;;;;20.83;9.38;;;17.10;99.90;;;;;;10508804;28;20044;-82
2022/05/24 10:12:13;;;;;;;15.02;8.40;;;17.00;99.90;;;;;;10504077;28;20068;-82
2022/05/24 10:17:23;;;;;;;13.73;9.43;;;17.10;99.90;;;;;;10484828;28;20032;-82
2022/05/24 10:22:50;;;;;;;11.20;7.22;;;17.20;99.90;;;;;;10480317;28;20040;-82
2022/05/24 10:28:10;;;;;;;10.70;7.60;;;17.50;99.90;;;;;;10462728;28;20525;-83
2022/05/24 10:38:56;;;;;;;14.10;7.90;;;17.90;99.90;;;;;;10495745;28;20107;-81
2022/05/24 10:44:12;;;;;;;8.77;6.60;;;17.70;99.90;;;;;;10495080;28;20056;-81
2022/05/24 10:50:08;;;;;;;11.25;6.78;;;17.70;99.90;;;;;;10483956;28;20027;-82
2022/05/24 10:55:18;;;;;;;9.23;6.60;;;17.90;99.90;;;;;;10364046;28;20605;-83
2022/05/24 11:00:23;;;;;;;10.13;5.82;;;18.30;99.90;;;;;;10495810;28;20044;-83
2022/05/24 11:05:36;;;;;;;13.02;7.18;;;18.60;99.90;;;;;;10484342;28;20028;-82
2022/05/24 11:10:41;;;;;;;10.85;6.35;;;18.80;99.90;;;;;;10488566;28;20032;-82
2022/05/24 11:15:47;;;;;;;12.33;6.53;;;19.00;99.90;;;;;;10473762;28;20025;-84
2022/05/24 11:21:08;;;;;;;18.00;8.20;;;19.00;99.90;;;;;;10479377;28;20115;-82
2022/05/24 11:26:30;;;;;;;9.13;6.80;;;19.30;99.90;;;;;;10484589;28;20037;-82
2022/05/24 11:31:41;;;;;;;9.85;6.70;;;19.70;99.90;;;;;;10492815;28;20082;-81
2022/05/24 11:36:45;;;;;;;11.25;6.45;;;19.90;99.90;;;;;;10492846;28;20464;-83
2022/05/24 11:41:46;;;;;;;12.18;6.80;;;20.20;97.20;;;;;;10474968;28;20408;-83
2022/05/24 11:46:49;;;;;;;11.50;7.43;;;20.50;96.90;;;;;;10489756;28;20033;-82
2022/05/24 11:51:51;;;;;;;11.77;6.55;;;20.30;94.90;;;;;;10486475;28;20557;-83
2022/05/24 11:56:55;;;;;;;11.52;6.10;;;20.20;95.70;;;;;;10525062;28;20103;-83
2022/05/24 12:01:56;;;;;;;6.60;5.50;;;20.20;93.80;;;;;;10532401;28;20034;-83
2022/05/24 12:12:36;;;;;;;8.68;5.78;;;20.40;93.00;;;;;;10491608;28;20048;-81
2022/05/24 12:17:36;;;;;;;9.30;5.80;;;20.60;94.20;;;;;;10488822;28;20032;-83
2022/05/24 12:23:03;;;;;;;8.13;5.00;;;21.10;91.70;;;;;;10492735;28;20066;-83
2022/05/24 12:28:09;;;;;;;8.15;4.78;;;21.30;91.50;;;;;;10487553;28;20067;-82
2022/05/24 12:33:25;;;;;;;7.07;5.20;;;21.30;90.40;;;;;;10470319;28;20136;-82
2022/05/24 12:38:29;;;;;;;6.43;4.93;;;21.30;90.70;;;;;;10486685;28;20472;-83
2022/05/24 12:43:30;;;;;;;8.55;5.45;;;21.90;87.60;;;;;;10490364;28;20049;-83
2022/05/24 12:48:37;;;;;;;8.98;5.22;;;22.00;84.20;;;;;;10488790;28;20044;-83
2022/05/24 12:53:38;;;;;;;11.48;6.05;;;21.70;86.70;;;;;;10488955;28;20037;-83
2022/05/24 12:58:43;;;;;;;10.93;5.63;;;21.60;85.80;;;;;;10486899;28;20027;-82
2022/05/24 13:03:45;;;;;;;10.00;5.72;;;22.00;86.20;;;;;;10478202;28;20013;-83
2022/05/24 13:08:47;;;;;;;7.32;5.05;;;22.20;85.30;;;;;;10485498;28;20047;-83
2022/05/24 13:13:48;;;;;;;8.07;5.65;;;22.30;84.60;;;;;;10489856;28;20175;-83
2022/05/24 13:18:49;;;;;;;10.07;6.00;;;22.40;84.40;;;;;;10515086;28;20029;-83
2022/05/24 13:24:10;;;;;;;9.77;6.22;;;22.50;82.90;;;;;;10490635;28;20031;-83
2022/05/24 13:29:24;;;;;;;9.63;6.38;;;22.60;82.50;;;;;;10468015;28;20028;-85
2022/05/24 13:34:29;;;;;;;11.35;6.53;;;23.00;80.70;;;;;;10472976;28;20082;-84
2022/05/24 13:39:39;;;;;;;9.65;6.57;;;23.10;81.30;;;;;;10496675;28;20083;-84
2022/05/24 13:44:42;;;;;;;7.53;5.70;;;23.00;80.60;;;;;;10510146;28;20465;-84
2022/05/24 13:49:48;;;;;;;13.32;6.38;;;23.00;80.60;;;;;;10485608;28;20032;-83
2022/05/24 13:54:51;;;;;;;8.90;6.10;;;22.50;81.10;;;;;;10487944;28;20025;-84
2022/05/24 14:00:12;;;;;;;10.35;6.32;;;22.20;82.40;;;;;;10481203;28;20031;-83
2022/05/24 14:05:34;;;;;;;11.68;7.05;;;22.50;83.50;;;;;;10484689;28;20032;-84
2022/05/24 14:10:37;;;;;;;8.63;5.97;;;22.40;83.80;;;;;;10467890;28;20032;-84
2022/05/24 14:15:48;;;;;;;10.25;6.15;;;22.70;84.40;;;;;;10481276;28;20500;-83
2022/05/24 14:20:48;;;;;;;9.38;5.80;;;22.90;82.70;;;;;;10492658;28;20029;-84
2022/05/24 14:25:49;;;;;;;14.18;6.28;;;22.50;82.60;;;;;;10488647;28;20496;-84
2022/05/24 14:30:51;;;;;;;7.78;6.00;;;22.30;83.70;;;;;;10482514;28;20033;-84
2022/05/24 14:35:51;;;;;;;9.75;6.03;;;22.00;85.00;;;;;;10486206;28;20159;-84
2022/05/24 14:40:52;;;;;;;8.55;6.22;;;21.80;85.80;;;;;;10484563;28;20052;-85
2022/05/24 14:45:53;;;;;;;15.80;6.35;;;21.60;85.60;;;;;;10481818;28;20020;-84
2022/05/24 14:50:54;;;;;;;7.82;5.03;;;21.60;87.20;;;;;;10481896;28;20469;-84
2022/05/24 14:55:55;;;;;;;9.25;5.30;;;21.70;85.50;;;;;;10474749;28;20558;-84
2022/05/24 15:00:55;;;;;;;6.00;5.07;;;21.70;85.70;;;;;;10485255;28;20464;-84
2022/05/24 15:05:57;;;;;;;7.20;5.75;;;21.70;86.30;;;;;;10487541;28;20033;-84
2022/05/24 15:16:17;;;;;;;7.97;5.78;;;21.60;86.10;;;;;;10495562;28;20155;-87
2022/05/24 15:21:22;;;;;;;9.43;5.63;;;21.50;87.10;;;;;;10492791;28;20020;-85
2022/05/24 15:26:32;;;;;;;10.80;6.53;;;21.40;87.50;;;;;;10504345;28;20032;-87
2022/05/24 15:31:33;;;;;;;9.77;5.95;;;21.30;89.00;;;;;;10501997;28;20036;-86
2022/05/24 15:36:35;;;;;;;8.00;5.30;;;21.10;88.70;;;;;;10506251;28;20471;-85
2022/05/24 15:41:36;;;;;;;7.45;5.47;;;20.90;89.20;;;;;;10488424;28;20075;-84
2022/05/24 15:46:37;;;;;;;9.50;5.22;;;20.70;90.00;;;;;;10473227;28;20031;-88
2022/05/24 15:51:38;;;;;;;14.20;7.00;;;20.50;90.50;;;;;;10486642;28;20511;-85
2022/05/24 15:56:39;;;;;;;15.55;7.32;;;20.20;92.20;;;;;;10469059;28;20119;-83
2022/05/24 16:01:39;;;;;;;7.85;6.03;;;19.70;95.10;;;;;;10500071;28;20071;-84
2022/05/24 16:12:00;;;;;;;10.68;7.25;;;19.20;99.90;;;;;;10489073;28;20529;-83
2022/05/24 16:17:02;;;;;;;9.73;6.25;;;19.00;99.90;;;;;;10480766;28;20024;-84
2022/05/24 16:22:04;;;;;;;12.82;7.80;;;18.80;99.90;;;;;;10476141;28;20354;-83
2022/05/24 16:27:05;;;;;;;16.38;10.05;;;18.60;99.90;;;;;;10474087;28;20670;-83
2022/05/24 16:32:06;;;;;;;9.80;7.97;;;18.60;99.90;;;;;;10469499;28;20043;-87
2022/05/24 16:37:07;;;;;;;11.73;8.45;;;18.50;99.90;;;;;;10487568;28;20772;-85
2022/05/24 16:42:09;;;;;;;10.55;7.53;;;18.40;99.90;;;;;;10451822;28;20053;-83
2022/05/24 16:47:09;;;;;;;10.57;8.20;;;18.30;99.90;;;;;;10482790;28;20028;-83
2022/05/24 16:52:12;;;;;;;11.60;8.45;;;18.30;99.90;;;;;;10456586;28;20068;-84
2022/05/24 17:02:32;;;;;;;14.38;10.25;;;18.20;99.90;;;;;;10477320;28;20036;-82
2022/05/24 17:07:32;;;;;;;12.55;10.45;;;18.20;99.90;;;;;;10486715;28;20021;-84
2022/05/24 17:12:33;;;;;;;13.88;10.93;;;18.10;99.90;;;;;;10451995;28;20040;-83
2022/05/24 17:17:34;;;;;;;18.77;14.18;;;18.10;99.90;;;;;;10469410;28;20025;-84
2022/05/24 17:22:35;;;;;;;20.67;15.13;;;18.00;99.90;;;;;;10499787;22;20060;-84
2022/05/24 17:27:37;;;;;;;19.67;12.65;;;18.00;99.90;;;;;;10483787;28;20149;-84
2022/05/24 17:32:58;;;;;;;17.38;10.98;;;18.00;99.90;;;;;;10461237;28;20040;-86
2022/05/24 17:38:03;;;;;;;14.75;9.82;;;17.90;99.90;;;;;;10452855;28;20446;-84
2022/05/24 17:43:07;;;;;;;15.10;9.95;;;17.80;99.90;;;;;;10479435;28;20033;-85
2022/05/24 17:48:10;;;;;;;18.13;10.97;;;17.80;99.90;;;;;;10441707;28;20430;-85
2022/05/24 17:53:14;;;;;;;19.67;14.05;;;17.70;99.90;;;;;;10468334;28;20036;-85
2022/05/24 17:58:18;;;;;;;20.75;14.50;;;17.60;99.90;;;;;;10478741;28;20652;-85
2022/05/24 18:03:20;;;;;;;23.77;16.05;;;17.60;99.90;;;;;;10456437;28;20033;-83
2022/05/24 18:08:21;;;;;;;20.83;16.77;;;17.50;99.90;;;;;;10452344;28;20036;-86
2022/05/24 18:13:22;;;;;;;22.10;15.57;;;17.50;99.90;;;;;;10469740;28;20058;-84
2022/05/24 18:18:23;;;;;;;22.15;15.43;;;17.40;99.90;;;;;;10482490;28;20029;-84
2022/05/24 18:23:35;;;;;;;19.00;13.93;;;17.30;99.90;;;;;;10451021;28;20052;-84
2022/05/24 18:33:56;;;;;;;22.42;16.42;;;17.20;99.90;;;;;;10419939;28;20179;-81
2022/05/24 18:38:57;;;;;;;19.00;14.82;;;17.10;99.90;;;;;;10421794;28;20033;-81
2022/05/24 18:43:58;;;;;;;23.80;16.75;;;17.00;99.90;;;;;;10433505;28;20035;-82
2022/05/24 18:48:58;;;;;;;20.83;16.15;;;16.80;99.90;;;;;;10443292;28;20033;-83
2022/05/24 18:53:59;;;;;;;22.40;17.88;;;16.80;99.90;;;;;;10440381;28;20032;-82
2022/05/24 18:58:59;;;;;;;22.80;17.98;;;16.80;99.90;;;;;;10445408;28;20571;-82
2022/05/24 19:04:02;;;;;;;23.73;19.25;;;16.80;99.90;;;;;;10445890;28;20037;-84
2022/05/24 19:09:03;;;;;;;25.42;19.42;;;16.80;99.90;;;;;;10444902;28;20044;-82
2022/05/24 19:14:04;;;;;;;25.27;19.15;;;16.70;99.90;;;;;;10444914;28;20038;-82
2022/05/24 19:19:05;;;;;;;28.38;20.85;;;16.80;99.90;;;;;;10448125;28;20040;-81
2022/05/24 19:24:07;;;;;;;28.98;21.65;;;16.70;99.90;;;;;;10489182;28;20079;-82
2022/05/24 19:29:08;;;;;;;27.38;20.85;;;16.70;99.90;;;;;;10487389;28;20467;-80
2022/05/24 19:34:08;;;;;;;28.13;22.83;;;16.70;99.90;;;;;;10485430;28;20127;-82
2022/05/24 19:44:28;;;;;;;30.05;23.58;;;16.70;99.90;;;;;;10497255;28;20028;-81
2022/05/24 19:49:29;;;;;;;29.55;23.02;;;16.70;99.90;;;;;;10508845;28;20127;-81
2022/05/24 19:54:31;;;;;;;31.40;22.33;;;16.70;99.90;;;;;;10491401;28;20048;-80
2022/05/24 19:59:32;;;;;;;28.10;21.67;;;16.70;99.90;;;;;;10485211;28;20869;-79
2022/05/24 20:04:33;;;;;;;30.02;22.85;;;16.60;99.90;;;;;;10489846;28;20093;-80
2022/05/24 20:09:34;;;;;;;35.50;26.08;;;16.60;99.90;;;;;;10533321;22;20140;-80
2022/05/24 20:14:35;;;;;;;33.33;26.10;;;16.60;99.90;;;;;;10529222;28;20043;-80
2022/05/24 20:19:37;;;;;;;34.60;24.67;;;16.60;99.90;;;;;;10529336;28;20024;-80
2022/05/24 20:24:41;;;;;;;34.85;25.95;;;16.60;99.90;;;;;;10528537;28;20032;-80
2022/05/24 20:29:42;;;;;;;34.67;24.75;;;16.50;99.90;;;;;;10530786;28;20508;-80
2022/05/24 20:34:44;;;;;;;35.38;26.63;;;16.50;99.90;;;;;;10527024;28;20141;-80
2022/05/24 20:39:45;;;;;;;31.50;23.95;;;16.60;99.90;;;;;;10529445;28;20519;-81
2022/05/24 20:44:45;;;;;;;28.45;22.70;;;16.60;99.90;;;;;;10526169;28;20025;-80
2022/05/24 20:49:46;;;;;;;32.67;23.33;;;16.60;99.90;;;;;;10529042;28;20028;-80
2022/05/24 20:54:46;;;;;;;31.10;23.23;;;16.60;99.90;;;;;;10489551;28;20037;-80
2022/05/24 20:59:47;;;;;;;31.02;24.63;;;16.60;99.90;;;;;;10490107;28;20043;-80
2022/05/24 21:04:55;;;;;;;42.08;30.92;;;16.60;99.90;;;;;;10488996;28;20036;-80
2022/05/24 21:09:55;;;;;;;45.13;29.90;;;16.50;99.90;;;;;;10485415;28;20115;-80
2022/05/24 21:14:57;;;;;;;37.08;27.48;;;16.50;99.90;;;;;;10453671;28;20037;-81
2022/05/24 21:19:57;;;;;;;42.60;29.92;;;16.50;99.90;;;;;;10486517;28;20068;-80
2022/05/24 21:30:17;;;;;;;46.83;32.85;;;16.50;99.90;;;;;;10486507;28;20068;-80
2022/05/24 21:35:18;;;;;;;51.45;35.17;;;16.40;99.90;;;;;;10464948;28;20498;-80
2022/05/24 21:40:19;;;;;;;38.55;29.88;;;16.40;99.90;;;;;;10482629;28;20044;-81
2022/05/24 21:45:20;;;;;;;38.58;28.38;;;16.40;99.90;;;;;;10484021;28;20105;-81
2022/05/24 21:50:21;;;;;;;50.95;36.08;;;16.40;99.90;;;;;;10488980;28;20055;-81
2022/05/24 21:55:22;;;;;;;48.45;35.53;;;16.40;99.90;;;;;;10485782;28;20044;-80
2022/05/24 22:00:46;;;;;;;51.35;35.78;;;16.30;99.90;;;;;;10451309;28;20599;-80
2022/05/24 22:05:48;;;;;;;55.70;36.65;;;16.20;99.90;;;;;;10487756;28;20024;-80
2022/05/24 22:10:49;;;;;;;46.88;34.97;;;16.10;99.90;;;;;;10487422;28;20036;-80
2022/05/24 22:15:49;;;;;;;40.97;32.00;;;16.10;99.90;;;;;;10481566;28;20033;-80
2022/05/24 22:20:50;;;;;;;41.50;31.55;;;16.10;99.90;;;;;;10450364;28;20110;-80
2022/05/24 22:25:52;;;;;;;47.80;34.08;;;16.20;99.90;;;;;;10461208;28;20028;-80
2022/05/24 22:30:55;;;;;;;47.58;33.58;;;16.10;99.90;;;;;;10494439;28;20117;-80
2022/05/24 22:35:57;;;;;;;44.47;32.90;;;16.10;99.90;;;;;;10496741;28;20111;-80
2022/05/24 22:41:06;;;;;;;46.38;33.53;;;16.10;99.90;;;;;;10464101;28;20405;-81
2022/05/24 22:46:13;;;;;;;36.78;28.27;;;16.20;99.90;;;;;;10462771;28;20032;-81
2022/05/24 22:51:23;;;;;;;44.03;30.88;;;16.20;99.90;;;;;;10494950;28;20444;-80
2022/05/24 22:56:24;;;;;;;46.25;35.10;;;16.10;99.90;;;;;;10494557;28;20111;-81
2022/05/24 23:01:25;;;;;;;51.65;36.97;;;16.20;99.90;;;;;;10492023;28;20059;-81
2022/05/24 23:06:26;;;;;;;50.45;35.95;;;16.20;99.90;;;;;;10473061;28;20091;-80
2022/05/24 23:11:26;;;;;;;38.40;29.90;;;16.20;99.90;;;;;;10474589;28;20461;-81
2022/05/24 23:16:27;;;;;;;53.13;36.42;;;16.20;99.90;;;;;;10464073;28;20043;-81
2022/05/24 23:21:28;;;;;;;47.17;35.45;;;16.20;99.90;;;;;;10493709;28;20029;-81
2022/05/24 23:26:28;;;;;;;45.42;33.60;;;16.10;99.90;;;;;;10464159;28;20033;-81
2022/05/24 23:31:31;;;;;;;47.58;31.38;;;16.10;99.90;;;;;;10482938;28;20079;-81
2022/05/24 23:36:33;;;;;;;52.65;35.47;;;16.10;99.90;;;;;;10475215;28;20048;-81
2022/05/24 23:41:33;;;;;;;48.85;35.00;;;16.10;99.90;;;;;;10494074;28;20021;-81
2022/05/24 23:46:34;;;;;;;53.15;37.35;;;16.10;99.90;;;;;;10481144;28;20041;-81
2022/05/24 23:51:34;;;;;;;49.72;36.33;;;16.10;99.90;;;;;;10482974;28;20048;-81
2022/05/24 23:56:35;;;;;;;55.70;37.88;;;16.10;99.90;;;;;;10492152;28;20036;-81
